sensor_id;sensor_type;location;lat;lon;timestamp;temperature;humidity
32698;DHT22;19087;51.062;3.754;2024-03-17T00:00:21;10.60;99.90
32698;DHT22;19087;51.062;3.754;2024-03-17T00:02:47;10.60;99.90
32698;DHT22;19087;51.062;3.754;2024-03-17T00:05:14;10.60;99.90
32698;DHT22;19087;51.062;3.754;2024-03-17T00:07:40;10.60;99.90
32698;DHT22;19087;51.062;3.754;2024-03-17T00:10:06;10.60;99.90
32698;DHT22;19087;51.062;3.754;2024-03-17T00:12:36;10.60;99.90
32698;DHT22;19087;51.062;3.754;2024-03-17T00:15:04;10.60;99.90
32698;DHT22;19087;51.062;3.754;2024-03-17T00:17:30;10.50;99.90
32698;DHT22;19087;51.062;3.754;2024-03-17T00:19:56;10.50;99.90
32698;DHT22;19087;51.062;3.754;2024-03-17T00:22:22;10.40;99.90
32698;DHT22;19087;51.062;3.754;2024-03-17T00:24:48;10.40;99.90
32698;DHT22;19087;51.062;3.754;2024-03-17T00:27:16;10.40;99.90
32698;DHT22;19087;51.062;3.754;2024-03-17T00:29:44;10.40;99.90
32698;DHT22;19087;51.062;3.754;2024-03-17T00:32:10;10.50;99.90
32698;DHT22;19087;51.062;3.754;2024-03-17T00:34:37;10.40;99.90
32698;DHT22;19087;51.062;3.754;2024-03-17T00:37:03;10.40;99.90
32698;DHT22;19087;51.062;3.754;2024-03-17T00:39:28;10.50;99.90
32698;DHT22;19087;51.062;3.754;2024-03-17T00:41:55;10.50;99.90
32698;DHT22;19087;51.062;3.754;2024-03-17T00:44:21;10.40;99.90
32698;DHT22;19087;51.062;3.754;2024-03-17T00:46:47;10.50;99.90
32698;DHT22;19087;51.062;3.754;2024-03-17T00:49:14;10.50;99.90
32698;DHT22;19087;51.062;3.754;2024-03-17T00:51:40;10.50;99.90
32698;DHT22;19087;51.062;3.754;2024-03-17T00:54:06;10.50;99.90
32698;DHT22;19087;51.062;3.754;2024-03-17T00:56:31;10.60;99.90
32698;DHT22;19087;51.062;3.754;2024-03-17T00:58:58;10.60;99.90
32698;DHT22;19087;51.062;3.754;2024-03-17T01:01:25;10.60;99.90
32698;DHT22;19087;51.062;3.754;2024-03-17T01:03:51;10.60;99.90
32698;DHT22;19087;51.062;3.754;2024-03-17T01:06:16;10.60;99.90
32698;DHT22;19087;51.062;3.754;2024-03-17T01:08:43;10.50;99.90
32698;DHT22;19087;51.062;3.754;2024-03-17T01:11:15;10.40;99.90
32698;DHT22;19087;51.062;3.754;2024-03-17T01:13:42;10.40;99.90
32698;DHT22;19087;51.062;3.754;2024-03-17T01:16:08;10.40;99.90
32698;DHT22;19087;51.062;3.754;2024-03-17T01:18:34;10.30;99.90
32698;DHT22;19087;51.062;3.754;2024-03-17T01:21:02;10.40;99.90
32698;DHT22;19087;51.062;3.754;2024-03-17T01:23:28;10.40;99.90
32698;DHT22;19087;51.062;3.754;2024-03-17T01:25:54;10.40;99.90
32698;DHT22;19087;51.062;3.754;2024-03-17T01:28:20;10.50;99.90
32698;DHT22;19087;51.062;3.754;2024-03-17T01:30:46;10.50;99.90
32698;DHT22;19087;51.062;3.754;2024-03-17T01:33:13;10.40;99.90
32698;DHT22;19087;51.062;3.754;2024-03-17T01:35:39;10.30;99.90
32698;DHT22;19087;51.062;3.754;2024-03-17T01:38:06;10.20;99.90
32698;DHT22;19087;51.062;3.754;2024-03-17T01:40:34;10.10;99.90
32698;DHT22;19087;51.062;3.754;2024-03-17T01:43:01;10.10;99.90
32698;DHT22;19087;51.062;3.754;2024-03-17T01:45:33;10.00;99.90
32698;DHT22;19087;51.062;3.754;2024-03-17T01:48:01;10.00;99.90
32698;DHT22;19087;51.062;3.754;2024-03-17T01:50:35;10.10;99.90
32698;DHT22;19087;51.062;3.754;2024-03-17T01:53:03;10.00;99.90
32698;DHT22;19087;51.062;3.754;2024-03-17T01:55:39;10.10;99.90
32698;DHT22;19087;51.062;3.754;2024-03-17T01:58:05;10.10;99.90
32698;DHT22;19087;51.062;3.754;2024-03-17T02:00:37;10.00;99.90
32698;DHT22;19087;51.062;3.754;2024-03-17T02:03:07;10.10;99.90
32698;DHT22;19087;51.062;3.754;2024-03-17T02:05:36;10.10;99.90
32698;DHT22;19087;51.062;3.754;2024-03-17T02:08:05;10.10;99.90
32698;DHT22;19087;51.062;3.754;2024-03-17T02:10:34;10.20;99.90
32698;DHT22;19087;51.062;3.754;2024-03-17T02:13:00;10.10;99.90
32698;DHT22;19087;51.062;3.754;2024-03-17T02:15:27;10.10;99.90
32698;DHT22;19087;51.062;3.754;2024-03-17T02:17:55;10.10;99.90
32698;DHT22;19087;51.062;3.754;2024-03-17T02:20:22;10.10;99.90
32698;DHT22;19087;51.062;3.754;2024-03-17T02:23:11;10.10;99.90
32698;DHT22;19087;51.062;3.754;2024-03-17T02:25:37;10.00;99.90
32698;DHT22;19087;51.062;3.754;2024-03-17T02:28:04;10.00;99.90
32698;DHT22;19087;51.062;3.754;2024-03-17T02:30:32;10.00;99.90
32698;DHT22;19087;51.062;3.754;2024-03-17T02:32:58;10.00;99.90
32698;DHT22;19087;51.062;3.754;2024-03-17T02:35:24;9.90;99.90
32698;DHT22;19087;51.062;3.754;2024-03-17T02:37:50;9.90;99.90
32698;DHT22;19087;51.062;3.754;2024-03-17T02:40:16;9.90;99.90
32698;DHT22;19087;51.062;3.754;2024-03-17T02:42:44;9.80;99.90
32698;DHT22;19087;51.062;3.754;2024-03-17T02:45:11;9.70;99.90
32698;DHT22;19087;51.062;3.754;2024-03-17T02:47:40;9.70;99.90
32698;DHT22;19087;51.062;3.754;2024-03-17T02:50:07;9.60;99.90
32698;DHT22;19087;51.062;3.754;2024-03-17T02:52:34;9.60;99.90
32698;DHT22;19087;51.062;3.754;2024-03-17T02:55:00;9.60;99.90
32698;DHT22;19087;51.062;3.754;2024-03-17T02:57:26;9.50;99.90
32698;DHT22;19087;51.062;3.754;2024-03-17T02:59:56;9.50;99.90
32698;DHT22;19087;51.062;3.754;2024-03-17T03:02:22;9.40;99.90
32698;DHT22;19087;51.062;3.754;2024-03-17T03:04:48;9.40;99.90
32698;DHT22;19087;51.062;3.754;2024-03-17T03:07:14;9.40;99.90
32698;DHT22;19087;51.062;3.754;2024-03-17T03:09:40;9.40;99.90
32698;DHT22;19087;51.062;3.754;2024-03-17T03:12:06;9.30;99.90
32698;DHT22;19087;51.062;3.754;2024-03-17T03:14:34;9.20;99.90
32698;DHT22;19087;51.062;3.754;2024-03-17T03:17:00;9.20;99.90
32698;DHT22;19087;51.062;3.754;2024-03-17T03:19:27;9.20;99.90
32698;DHT22;19087;51.062;3.754;2024-03-17T03:21:54;9.30;99.90
32698;DHT22;19087;51.062;3.754;2024-03-17T03:24:19;9.20;99.90
32698;DHT22;19087;51.062;3.754;2024-03-17T03:26:45;9.30;99.90
32698;DHT22;19087;51.062;3.754;2024-03-17T03:29:11;9.40;99.90
32698;DHT22;19087;51.062;3.754;2024-03-17T03:31:37;9.40;99.90
32698;DHT22;19087;51.062;3.754;2024-03-17T03:34:04;9.30;99.90
32698;DHT22;19087;51.062;3.754;2024-03-17T03:36:37;9.30;99.90
32698;DHT22;19087;51.062;3.754;2024-03-17T03:39:06;9.30;99.90
32698;DHT22;19087;51.062;3.754;2024-03-17T03:41:36;9.30;99.90
32698;DHT22;19087;51.062;3.754;2024-03-17T03:44:04;9.20;99.90
32698;DHT22;19087;51.062;3.754;2024-03-17T03:46:30;9.20;99.90
32698;DHT22;19087;51.062;3.754;2024-03-17T03:48:56;9.20;99.90
32698;DHT22;19087;51.062;3.754;2024-03-17T03:51:21;9.20;99.90
32698;DHT22;19087;51.062;3.754;2024-03-17T03:53:48;9.20;99.90
32698;DHT22;19087;51.062;3.754;2024-03-17T03:56:16;9.30;99.90
32698;DHT22;19087;51.062;3.754;2024-03-17T03:58:42;9.30;99.90
32698;DHT22;19087;51.062;3.754;2024-03-17T04:01:11;9.20;99.90
32698;DHT22;19087;51.062;3.754;2024-03-17T04:03:38;9.20;99.90
32698;DHT22;19087;51.062;3.754;2024-03-17T04:06:08;9.10;99.90
32698;DHT22;19087;51.062;3.754;2024-03-17T04:08:36;9.00;99.90
32698;DHT22;19087;51.062;3.754;2024-03-17T04:11:03;9.00;99.90
32698;DHT22;19087;51.062;3.754;2024-03-17T04:13:30;9.00;99.90
32698;DHT22;19087;51.062;3.754;2024-03-17T04:16:06;9.10;99.90
32698;DHT22;19087;51.062;3.754;2024-03-17T04:18:32;9.10;99.90
32698;DHT22;19087;51.062;3.754;2024-03-17T04:21:03;9.00;99.90
32698;DHT22;19087;51.062;3.754;2024-03-17T04:23:29;9.00;99.90
32698;DHT22;19087;51.062;3.754;2024-03-17T04:25:58;9.00;99.90
32698;DHT22;19087;51.062;3.754;2024-03-17T04:28:24;9.00;99.90
32698;DHT22;19087;51.062;3.754;2024-03-17T04:30:49;9.00;99.90
32698;DHT22;19087;51.062;3.754;2024-03-17T04:33:15;9.00;99.90
32698;DHT22;19087;51.062;3.754;2024-03-17T04:35:43;9.00;99.90
32698;DHT22;19087;51.062;3.754;2024-03-17T04:38:09;9.00;99.90
32698;DHT22;19087;51.062;3.754;2024-03-17T04:40:40;9.00;99.90
32698;DHT22;19087;51.062;3.754;2024-03-17T04:43:07;9.00;99.90
32698;DHT22;19087;51.062;3.754;2024-03-17T04:45:33;9.00;99.90
32698;DHT22;19087;51.062;3.754;2024-03-17T04:48:04;9.00;99.90
32698;DHT22;19087;51.062;3.754;2024-03-17T04:50:30;8.90;99.90
32698;DHT22;19087;51.062;3.754;2024-03-17T04:53:01;8.90;99.90
32698;DHT22;19087;51.062;3.754;2024-03-17T04:55:27;9.00;99.90
32698;DHT22;19087;51.062;3.754;2024-03-17T04:57:52;9.00;99.90
32698;DHT22;19087;51.062;3.754;2024-03-17T05:00:18;9.10;99.90
32698;DHT22;19087;51.062;3.754;2024-03-17T05:02:45;9.10;99.90
32698;DHT22;19087;51.062;3.754;2024-03-17T05:05:10;9.10;99.90
32698;DHT22;19087;51.062;3.754;2024-03-17T05:07:37;9.10;99.90
32698;DHT22;19087;51.062;3.754;2024-03-17T05:10:03;9.20;99.90
32698;DHT22;19087;51.062;3.754;2024-03-17T05:12:29;9.20;99.90
32698;DHT22;19087;51.062;3.754;2024-03-17T05:14:55;9.20;99.90
32698;DHT22;19087;51.062;3.754;2024-03-17T05:17:22;9.20;99.90
32698;DHT22;19087;51.062;3.754;2024-03-17T05:19:48;9.20;99.90
32698;DHT22;19087;51.062;3.754;2024-03-17T05:22:14;9.20;99.90
32698;DHT22;19087;51.062;3.754;2024-03-17T05:24:40;9.30;99.90
32698;DHT22;19087;51.062;3.754;2024-03-17T05:27:06;9.20;99.90
32698;DHT22;19087;51.062;3.754;2024-03-17T05:29:32;9.20;99.90
32698;DHT22;19087;51.062;3.754;2024-03-17T05:31:58;9.20;99.90
32698;DHT22;19087;51.062;3.754;2024-03-17T05:34:24;9.20;99.90
32698;DHT22;19087;51.062;3.754;2024-03-17T05:36:50;9.30;99.90
32698;DHT22;19087;51.062;3.754;2024-03-17T05:39:16;9.50;99.90
32698;DHT22;19087;51.062;3.754;2024-03-17T05:41:43;9.50;99.90
32698;DHT22;19087;51.062;3.754;2024-03-17T05:44:09;9.50;99.90
32698;DHT22;19087;51.062;3.754;2024-03-17T05:46:35;9.50;99.90
32698;DHT22;19087;51.062;3.754;2024-03-17T05:49:01;9.60;99.90
32698;DHT22;19087;51.062;3.754;2024-03-17T05:51:29;9.60;99.90
32698;DHT22;19087;51.062;3.754;2024-03-17T05:53:55;9.60;99.90
32698;DHT22;19087;51.062;3.754;2024-03-17T05:56:21;9.50;99.90
32698;DHT22;19087;51.062;3.754;2024-03-17T05:58:48;9.50;99.90
32698;DHT22;19087;51.062;3.754;2024-03-17T06:01:14;9.50;99.90
32698;DHT22;19087;51.062;3.754;2024-03-17T06:03:40;9.60;99.90
32698;DHT22;19087;51.062;3.754;2024-03-17T06:06:07;9.60;99.90
32698;DHT22;19087;51.062;3.754;2024-03-17T06:08:37;9.70;99.90
32698;DHT22;19087;51.062;3.754;2024-03-17T06:11:04;9.80;99.90
32698;DHT22;19087;51.062;3.754;2024-03-17T06:13:31;9.90;99.90
32698;DHT22;19087;51.062;3.754;2024-03-17T06:15:57;9.80;99.90
32698;DHT22;19087;51.062;3.754;2024-03-17T06:18:26;9.90;99.90
32698;DHT22;19087;51.062;3.754;2024-03-17T06:20:52;10.00;99.90
32698;DHT22;19087;51.062;3.754;2024-03-17T06:23:18;10.10;99.90
32698;DHT22;19087;51.062;3.754;2024-03-17T06:25:45;10.10;99.90
32698;DHT22;19087;51.062;3.754;2024-03-17T06:28:12;10.10;99.90
32698;DHT22;19087;51.062;3.754;2024-03-17T06:30:45;10.10;99.90
32698;DHT22;19087;51.062;3.754;2024-03-17T06:33:15;10.10;99.90
32698;DHT22;19087;51.062;3.754;2024-03-17T06:35:42;10.10;99.90
32698;DHT22;19087;51.062;3.754;2024-03-17T06:38:11;10.10;99.90
32698;DHT22;19087;51.062;3.754;2024-03-17T06:40:39;10.30;99.90
32698;DHT22;19087;51.062;3.754;2024-03-17T06:43:05;10.30;99.90
32698;DHT22;19087;51.062;3.754;2024-03-17T06:45:32;10.30;99.90
32698;DHT22;19087;51.062;3.754;2024-03-17T06:47:59;10.30;99.90
32698;DHT22;19087;51.062;3.754;2024-03-17T06:50:28;10.40;99.90
32698;DHT22;19087;51.062;3.754;2024-03-17T06:52:54;10.40;99.90
32698;DHT22;19087;51.062;3.754;2024-03-17T06:55:20;10.50;99.90
32698;DHT22;19087;51.062;3.754;2024-03-17T06:57:47;10.50;99.90
32698;DHT22;19087;51.062;3.754;2024-03-17T07:00:13;10.40;99.90
32698;DHT22;19087;51.062;3.754;2024-03-17T07:02:41;10.40;99.90
32698;DHT22;19087;51.062;3.754;2024-03-17T07:05:13;10.40;99.90
32698;DHT22;19087;51.062;3.754;2024-03-17T07:07:42;10.50;99.90
32698;DHT22;19087;51.062;3.754;2024-03-17T07:10:09;10.60;99.90
32698;DHT22;19087;51.062;3.754;2024-03-17T07:12:37;10.70;99.90
32698;DHT22;19087;51.062;3.754;2024-03-17T07:15:03;10.70;99.90
32698;DHT22;19087;51.062;3.754;2024-03-17T07:17:28;10.80;99.90
32698;DHT22;19087;51.062;3.754;2024-03-17T07:19:55;10.90;99.90
32698;DHT22;19087;51.062;3.754;2024-03-17T07:22:21;10.90;99.90
32698;DHT22;19087;51.062;3.754;2024-03-17T07:24:49;10.90;99.90
32698;DHT22;19087;51.062;3.754;2024-03-17T07:27:22;11.00;99.90
32698;DHT22;19087;51.062;3.754;2024-03-17T07:29:49;11.10;99.90
32698;DHT22;19087;51.062;3.754;2024-03-17T07:32:15;11.20;99.90
32698;DHT22;19087;51.062;3.754;2024-03-17T07:34:41;11.20;99.90
32698;DHT22;19087;51.062;3.754;2024-03-17T07:37:06;11.10;99.90
32698;DHT22;19087;51.062;3.754;2024-03-17T07:39:33;11.10;99.90
32698;DHT22;19087;51.062;3.754;2024-03-17T07:41:59;11.20;99.90
32698;DHT22;19087;51.062;3.754;2024-03-17T07:44:27;11.30;99.90
32698;DHT22;19087;51.062;3.754;2024-03-17T07:47:03;11.30;99.90
32698;DHT22;19087;51.062;3.754;2024-03-17T07:49:30;11.30;99.90
32698;DHT22;19087;51.062;3.754;2024-03-17T07:51:58;11.40;99.90
32698;DHT22;19087;51.062;3.754;2024-03-17T07:54:28;11.40;99.90
32698;DHT22;19087;51.062;3.754;2024-03-17T07:56:55;11.40;99.90
32698;DHT22;19087;51.062;3.754;2024-03-17T07:59:22;11.40;99.90
32698;DHT22;19087;51.062;3.754;2024-03-17T08:01:47;11.50;99.90
32698;DHT22;19087;51.062;3.754;2024-03-17T08:04:13;11.50;99.90
32698;DHT22;19087;51.062;3.754;2024-03-17T08:06:39;11.60;99.90
32698;DHT22;19087;51.062;3.754;2024-03-17T08:09:07;11.70;99.90
32698;DHT22;19087;51.062;3.754;2024-03-17T08:11:34;11.80;99.90
32698;DHT22;19087;51.062;3.754;2024-03-17T08:14:00;11.90;99.90
32698;DHT22;19087;51.062;3.754;2024-03-17T08:16:27;11.90;99.90
32698;DHT22;19087;51.062;3.754;2024-03-17T08:18:53;11.90;99.90
32698;DHT22;19087;51.062;3.754;2024-03-17T08:21:19;12.00;99.90
32698;DHT22;19087;51.062;3.754;2024-03-17T08:23:45;12.00;99.90
32698;DHT22;19087;51.062;3.754;2024-03-17T08:26:12;12.00;99.90
32698;DHT22;19087;51.062;3.754;2024-03-17T08:28:38;12.00;99.90
32698;DHT22;19087;51.062;3.754;2024-03-17T08:31:04;12.10;99.90
32698;DHT22;19087;51.062;3.754;2024-03-17T08:33:31;12.10;99.90
32698;DHT22;19087;51.062;3.754;2024-03-17T08:36:00;12.10;99.90
32698;DHT22;19087;51.062;3.754;2024-03-17T08:38:28;12.00;99.90
32698;DHT22;19087;51.062;3.754;2024-03-17T08:40:55;11.90;99.90
32698;DHT22;19087;51.062;3.754;2024-03-17T08:43:23;11.90;99.90
32698;DHT22;19087;51.062;3.754;2024-03-17T08:46:00;11.90;99.90
32698;DHT22;19087;51.062;3.754;2024-03-17T08:48:31;11.90;99.90
32698;DHT22;19087;51.062;3.754;2024-03-17T08:50:58;11.90;99.90
32698;DHT22;19087;51.062;3.754;2024-03-17T08:53:25;12.00;99.90
32698;DHT22;19087;51.062;3.754;2024-03-17T08:55:53;12.00;99.90
32698;DHT22;19087;51.062;3.754;2024-03-17T08:58:21;12.00;99.90
32698;DHT22;19087;51.062;3.754;2024-03-17T09:00:50;12.10;99.90
32698;DHT22;19087;51.062;3.754;2024-03-17T09:03:18;11.90;99.90
32698;DHT22;19087;51.062;3.754;2024-03-17T09:05:46;11.80;99.90
32698;DHT22;19087;51.062;3.754;2024-03-17T09:08:30;11.70;99.90
32698;DHT22;19087;51.062;3.754;2024-03-17T09:11:01;11.60;99.90
32698;DHT22;19087;51.062;3.754;2024-03-17T09:13:27;11.60;99.90
32698;DHT22;19087;51.062;3.754;2024-03-17T09:16:02;11.60;99.90
32698;DHT22;19087;51.062;3.754;2024-03-17T09:18:41;11.60;99.90
32698;DHT22;19087;51.062;3.754;2024-03-17T09:21:08;11.80;99.90
32698;DHT22;19087;51.062;3.754;2024-03-17T09:23:34;11.70;99.90
32698;DHT22;19087;51.062;3.754;2024-03-17T09:26:08;11.80;99.90
32698;DHT22;19087;51.062;3.754;2024-03-17T09:28:49;11.80;99.90
32698;DHT22;19087;51.062;3.754;2024-03-17T09:31:15;11.80;99.90
32698;DHT22;19087;51.062;3.754;2024-03-17T09:33:43;11.70;99.90
32698;DHT22;19087;51.062;3.754;2024-03-17T09:36:10;11.60;99.90
32698;DHT22;19087;51.062;3.754;2024-03-17T09:38:38;11.60;99.90
32698;DHT22;19087;51.062;3.754;2024-03-17T09:41:07;11.60;99.90
32698;DHT22;19087;51.062;3.754;2024-03-17T09:43:35;11.60;99.90
32698;DHT22;19087;51.062;3.754;2024-03-17T09:46:06;11.70;99.90
32698;DHT22;19087;51.062;3.754;2024-03-17T09:48:32;11.60;99.90
32698;DHT22;19087;51.062;3.754;2024-03-17T09:51:02;11.60;99.90
32698;DHT22;19087;51.062;3.754;2024-03-17T09:53:29;11.80;99.90
32698;DHT22;19087;51.062;3.754;2024-03-17T09:58:24;12.00;99.90
32698;DHT22;19087;51.062;3.754;2024-03-17T10:00:51;12.00;99.90
32698;DHT22;19087;51.062;3.754;2024-03-17T10:06:06;12.00;99.90
32698;DHT22;19087;51.062;3.754;2024-03-17T10:08:32;12.00;99.90
32698;DHT22;19087;51.062;3.754;2024-03-17T10:11:00;12.20;99.90
32698;DHT22;19087;51.062;3.754;2024-03-17T10:13:26;12.50;99.90
32698;DHT22;19087;51.062;3.754;2024-03-17T10:15:55;12.70;99.90
32698;DHT22;19087;51.062;3.754;2024-03-17T10:18:22;12.70;99.90
32698;DHT22;19087;51.062;3.754;2024-03-17T10:20:48;13.00;99.90
32698;DHT22;19087;51.062;3.754;2024-03-17T10:23:20;13.10;99.90
32698;DHT22;19087;51.062;3.754;2024-03-17T10:25:46;13.10;99.90
32698;DHT22;19087;51.062;3.754;2024-03-17T10:28:13;13.10;99.90
32698;DHT22;19087;51.062;3.754;2024-03-17T10:30:40;13.20;99.90
32698;DHT22;19087;51.062;3.754;2024-03-17T10:33:08;13.30;99.90
32698;DHT22;19087;51.062;3.754;2024-03-17T10:35:48;13.50;99.90
32698;DHT22;19087;51.062;3.754;2024-03-17T10:38:14;13.60;99.90
32698;DHT22;19087;51.062;3.754;2024-03-17T10:40:41;13.80;99.90
32698;DHT22;19087;51.062;3.754;2024-03-17T10:43:07;13.90;99.90
32698;DHT22;19087;51.062;3.754;2024-03-17T10:45:34;14.00;99.90
32698;DHT22;19087;51.062;3.754;2024-03-17T10:48:07;14.20;99.90
32698;DHT22;19087;51.062;3.754;2024-03-17T10:50:36;14.30;99.90
32698;DHT22;19087;51.062;3.754;2024-03-17T10:53:04;14.70;99.90
32698;DHT22;19087;51.062;3.754;2024-03-17T10:55:45;15.00;99.90
32698;DHT22;19087;51.062;3.754;2024-03-17T10:58:23;14.90;99.90
32698;DHT22;19087;51.062;3.754;2024-03-17T11:00:53;15.00;99.90
32698;DHT22;19087;51.062;3.754;2024-03-17T11:03:19;15.20;99.90
32698;DHT22;19087;51.062;3.754;2024-03-17T11:05:48;15.30;99.90
32698;DHT22;19087;51.062;3.754;2024-03-17T11:08:16;15.10;99.90
32698;DHT22;19087;51.062;3.754;2024-03-17T11:10:53;15.10;99.90
32698;DHT22;19087;51.062;3.754;2024-03-17T11:13:28;15.00;99.90
32698;DHT22;19087;51.062;3.754;2024-03-17T11:15:58;14.80;99.90
32698;DHT22;19087;51.062;3.754;2024-03-17T11:21:22;15.00;99.90
32698;DHT22;19087;51.062;3.754;2024-03-17T11:23:58;15.00;99.90
32698;DHT22;19087;51.062;3.754;2024-03-17T11:26:29;14.80;99.90
32698;DHT22;19087;51.062;3.754;2024-03-17T11:28:55;14.80;99.90
32698;DHT22;19087;51.062;3.754;2024-03-17T11:31:49;15.10;99.90
32698;DHT22;19087;51.062;3.754;2024-03-17T11:36:57;15.50;99.90
32698;DHT22;19087;51.062;3.754;2024-03-17T11:39:46;15.70;99.90
32698;DHT22;19087;51.062;3.754;2024-03-17T11:42:15;16.00;99.90
32698;DHT22;19087;51.062;3.754;2024-03-17T11:45:04;16.20;99.90
32698;DHT22;19087;51.062;3.754;2024-03-17T11:47:38;16.00;99.90
32698;DHT22;19087;51.062;3.754;2024-03-17T11:50:09;16.00;99.90
32698;DHT22;19087;51.062;3.754;2024-03-17T11:52:36;16.10;99.90
32698;DHT22;19087;51.062;3.754;2024-03-17T11:55:03;16.20;99.90
32698;DHT22;19087;51.062;3.754;2024-03-17T11:57:29;16.40;99.90
32698;DHT22;19087;51.062;3.754;2024-03-17T11:59:56;16.20;99.90
32698;DHT22;19087;51.062;3.754;2024-03-17T12:02:27;16.10;99.90
32698;DHT22;19087;51.062;3.754;2024-03-17T12:04:56;16.00;99.90
32698;DHT22;19087;51.062;3.754;2024-03-17T12:07:22;16.00;99.90
32698;DHT22;19087;51.062;3.754;2024-03-17T12:09:50;16.20;99.90
32698;DHT22;19087;51.062;3.754;2024-03-17T12:12:18;16.50;99.90
32698;DHT22;19087;51.062;3.754;2024-03-17T12:14:45;16.80;99.90
32698;DHT22;19087;51.062;3.754;2024-03-17T12:17:13;16.80;99.90
32698;DHT22;19087;51.062;3.754;2024-03-17T12:19:44;17.00;99.90
32698;DHT22;19087;51.062;3.754;2024-03-17T12:22:19;17.00;99.90
32698;DHT22;19087;51.062;3.754;2024-03-17T12:24:50;16.80;99.90
32698;DHT22;19087;51.062;3.754;2024-03-17T12:27:20;16.60;99.90
32698;DHT22;19087;51.062;3.754;2024-03-17T12:29:50;16.50;99.90
32698;DHT22;19087;51.062;3.754;2024-03-17T12:32:23;16.60;99.90
32698;DHT22;19087;51.062;3.754;2024-03-17T12:34:51;16.50;99.90
32698;DHT22;19087;51.062;3.754;2024-03-17T12:37:20;16.50;99.90
32698;DHT22;19087;51.062;3.754;2024-03-17T12:39:46;16.20;99.90
32698;DHT22;19087;51.062;3.754;2024-03-17T12:42:26;16.10;99.90
32698;DHT22;19087;51.062;3.754;2024-03-17T12:44:59;16.20;99.90
32698;DHT22;19087;51.062;3.754;2024-03-17T12:47:26;16.20;99.90
32698;DHT22;19087;51.062;3.754;2024-03-17T12:49:55;16.20;99.90
32698;DHT22;19087;51.062;3.754;2024-03-17T12:52:28;16.10;99.90
32698;DHT22;19087;51.062;3.754;2024-03-17T12:55:08;16.30;99.90
32698;DHT22;19087;51.062;3.754;2024-03-17T12:58:06;16.80;99.90
32698;DHT22;19087;51.062;3.754;2024-03-17T13:01:03;17.20;99.90
32698;DHT22;19087;51.062;3.754;2024-03-17T13:03:34;17.30;99.90
32698;DHT22;19087;51.062;3.754;2024-03-17T13:06:01;17.60;99.90
32698;DHT22;19087;51.062;3.754;2024-03-17T13:08:28;17.60;99.90
32698;DHT22;19087;51.062;3.754;2024-03-17T13:10:54;17.60;99.90
32698;DHT22;19087;51.062;3.754;2024-03-17T13:13:20;17.50;99.90
32698;DHT22;19087;51.062;3.754;2024-03-17T13:15:46;17.30;99.90
32698;DHT22;19087;51.062;3.754;2024-03-17T13:18:19;17.30;99.90
32698;DHT22;19087;51.062;3.754;2024-03-17T13:20:46;17.10;99.90
32698;DHT22;19087;51.062;3.754;2024-03-17T13:23:15;17.00;99.90
32698;DHT22;19087;51.062;3.754;2024-03-17T13:25:41;17.00;99.90
32698;DHT22;19087;51.062;3.754;2024-03-17T13:28:09;17.10;99.90
32698;DHT22;19087;51.062;3.754;2024-03-17T13:30:35;16.90;99.90
32698;DHT22;19087;51.062;3.754;2024-03-17T13:33:06;16.70;99.90
32698;DHT22;19087;51.062;3.754;2024-03-17T13:35:36;16.80;99.90
32698;DHT22;19087;51.062;3.754;2024-03-17T13:38:08;16.80;99.90
32698;DHT22;19087;51.062;3.754;2024-03-17T13:40:36;17.00;99.90
32698;DHT22;19087;51.062;3.754;2024-03-17T13:43:03;17.10;99.90
32698;DHT22;19087;51.062;3.754;2024-03-17T13:45:37;17.00;99.90
32698;DHT22;19087;51.062;3.754;2024-03-17T13:48:04;16.90;99.90
32698;DHT22;19087;51.062;3.754;2024-03-17T13:50:32;16.70;99.90
32698;DHT22;19087;51.062;3.754;2024-03-17T13:52:59;16.70;99.90
32698;DHT22;19087;51.062;3.754;2024-03-17T13:55:26;16.80;99.90
32698;DHT22;19087;51.062;3.754;2024-03-17T13:57:57;17.00;99.90
32698;DHT22;19087;51.062;3.754;2024-03-17T14:00:26;17.20;99.90
32698;DHT22;19087;51.062;3.754;2024-03-17T14:02:56;17.00;99.90
32698;DHT22;19087;51.062;3.754;2024-03-17T14:05:23;16.90;99.90
32698;DHT22;19087;51.062;3.754;2024-03-17T14:07:52;16.80;99.90
32698;DHT22;19087;51.062;3.754;2024-03-17T14:10:20;16.70;99.90
32698;DHT22;19087;51.062;3.754;2024-03-17T14:12:50;16.60;99.90
32698;DHT22;19087;51.062;3.754;2024-03-17T14:15:16;16.50;99.90
32698;DHT22;19087;51.062;3.754;2024-03-17T14:17:45;16.60;99.90
32698;DHT22;19087;51.062;3.754;2024-03-17T14:20:13;16.50;99.90
32698;DHT22;19087;51.062;3.754;2024-03-17T14:22:41;16.50;99.90
32698;DHT22;19087;51.062;3.754;2024-03-17T14:25:10;16.70;99.90
32698;DHT22;19087;51.062;3.754;2024-03-17T14:27:39;16.70;99.90
32698;DHT22;19087;51.062;3.754;2024-03-17T14:30:06;16.80;99.90
32698;DHT22;19087;51.062;3.754;2024-03-17T14:32:36;16.60;99.90
32698;DHT22;19087;51.062;3.754;2024-03-17T14:35:02;16.40;99.90
32698;DHT22;19087;51.062;3.754;2024-03-17T14:37:28;16.20;99.90
32698;DHT22;19087;51.062;3.754;2024-03-17T14:39:54;16.00;99.90
32698;DHT22;19087;51.062;3.754;2024-03-17T14:42:21;16.00;99.90
32698;DHT22;19087;51.062;3.754;2024-03-17T14:44:48;16.10;99.90
32698;DHT22;19087;51.062;3.754;2024-03-17T14:47:15;16.00;99.90
32698;DHT22;19087;51.062;3.754;2024-03-17T14:49:41;16.00;99.90
32698;DHT22;19087;51.062;3.754;2024-03-17T14:52:07;16.10;99.90
32698;DHT22;19087;51.062;3.754;2024-03-17T14:54:34;16.10;99.90
32698;DHT22;19087;51.062;3.754;2024-03-17T14:57:00;16.10;99.90
32698;DHT22;19087;51.062;3.754;2024-03-17T14:59:26;15.90;99.90
32698;DHT22;19087;51.062;3.754;2024-03-17T15:01:52;15.80;99.90
32698;DHT22;19087;51.062;3.754;2024-03-17T15:04:26;15.90;99.90
32698;DHT22;19087;51.062;3.754;2024-03-17T15:06:52;15.90;99.90
32698;DHT22;19087;51.062;3.754;2024-03-17T15:09:19;15.90;99.90
32698;DHT22;19087;51.062;3.754;2024-03-17T15:11:48;15.80;99.90
32698;DHT22;19087;51.062;3.754;2024-03-17T15:14:14;15.90;99.90
32698;DHT22;19087;51.062;3.754;2024-03-17T15:16:42;15.80;99.90
32698;DHT22;19087;51.062;3.754;2024-03-17T15:19:07;15.60;99.90
32698;DHT22;19087;51.062;3.754;2024-03-17T15:21:35;15.60;99.90
32698;DHT22;19087;51.062;3.754;2024-03-17T15:24:01;15.50;99.90
32698;DHT22;19087;51.062;3.754;2024-03-17T15:26:30;15.40;99.90
32698;DHT22;19087;51.062;3.754;2024-03-17T15:28:56;15.30;99.90
32698;DHT22;19087;51.062;3.754;2024-03-17T15:31:24;15.10;99.90
32698;DHT22;19087;51.062;3.754;2024-03-17T15:33:51;15.00;99.90
32698;DHT22;19087;51.062;3.754;2024-03-17T15:36:17;14.90;99.90
32698;DHT22;19087;51.062;3.754;2024-03-17T15:38:43;14.80;99.90
32698;DHT22;19087;51.062;3.754;2024-03-17T15:41:12;14.90;99.90
32698;DHT22;19087;51.062;3.754;2024-03-17T15:43:40;14.80;99.90
32698;DHT22;19087;51.062;3.754;2024-03-17T15:46:18;14.80;99.90
32698;DHT22;19087;51.062;3.754;2024-03-17T15:48:45;14.60;99.90
32698;DHT22;19087;51.062;3.754;2024-03-17T15:51:12;14.50;99.90